createdAt,value
2023-03-14T00:01:50.315Z,1.23
2023-03-14T00:04:56.330Z,1.92
2023-03-14T00:07:58.570Z,0.30
2023-03-14T00:11:15.807Z,0.77
2023-03-14T00:14:17.995Z,0.40
2023-03-14T00:17:20.245Z,0.63
2023-03-14T00:20:22.484Z,0.60
2023-03-14T00:23:24.721Z,1.25
2023-03-14T00:26:26.917Z,0.25
2023-03-14T00:29:29.178Z,0.80
2023-03-14T00:32:31.485Z,0.17
2023-03-14T00:35:33.750Z,2.10
2023-03-14T00:38:37.037Z,0.20
2023-03-14T00:41:40.731Z,0.98
2023-03-14T00:44:42.930Z,0.82
2023-03-14T00:47:46.613Z,0.60
2023-03-14T00:50:49.129Z,0.35
2023-03-14T00:53:51.687Z,0.13
2023-03-14T00:56:53.998Z,0.45
2023-03-14T00:59:56.750Z,0.60
2023-03-14T01:02:59.173Z,0.40
2023-03-14T01:06:28.665Z,0.95
2023-03-14T01:09:30.973Z,0.75
2023-03-14T01:12:33.320Z,0.52
2023-03-14T01:15:36.963Z,0.52
2023-03-14T01:18:40.922Z,0.47
2023-03-14T01:21:43.230Z,0.40
2023-03-14T01:24:45.428Z,0.30
2023-03-14T01:27:47.609Z,0.85
2023-03-14T01:30:56.529Z,0.82
2023-03-14T01:33:59.056Z,0.80
2023-03-14T01:37:01.538Z,0.15
2023-03-14T01:40:06.283Z,0.30
2023-03-14T01:43:22.322Z,0.10
2023-03-14T01:46:36.838Z,0.57
2023-03-14T01:49:40.007Z,0.75
2023-03-14T01:52:50.160Z,0.20
2023-03-14T01:55:57.366Z,0.70
2023-03-14T01:59:02.079Z,0.30
2023-03-14T02:02:08.550Z,1.13
2023-03-14T02:05:18.410Z,0.40
2023-03-14T02:08:25.570Z,0.25
2023-03-14T02:11:33.523Z,1.35
2023-03-14T02:14:41.766Z,0.47
2023-03-14T02:17:53.525Z,0.17
2023-03-14T02:21:43.268Z,0.50
2023-03-14T02:25:14.008Z,0.30
2023-03-14T02:28:17.387Z,0.47
2023-03-14T02:31:22.062Z,0.93
2023-03-14T02:34:26.929Z,0.50
2023-03-14T02:37:37.128Z,0.40
2023-03-14T02:40:41.762Z,0.35
2023-03-14T02:43:44.013Z,0.40
2023-03-14T02:46:48.227Z,0.40
2023-03-14T02:49:59.713Z,0.20
2023-03-14T02:53:02.118Z,0.10
2023-03-14T02:56:05.185Z,0.43
2023-03-14T02:59:09.671Z,0.13
2023-03-14T03:02:23.302Z,0.95
2023-03-14T03:05:28.031Z,0.13
2023-03-14T03:08:30.500Z,0.90
2023-03-14T03:11:34.446Z,0.10
2023-03-14T03:14:38.431Z,0.45
2023-03-14T03:17:41.427Z,0.17
2023-03-14T03:20:43.722Z,0.23
2023-03-14T03:23:46.009Z,0.45
2023-03-14T03:26:48.240Z,0.40
2023-03-14T03:29:50.482Z,1.20
2023-03-14T03:32:52.876Z,0.30
2023-03-14T03:35:55.188Z,1.13
2023-03-14T03:39:04.719Z,0.50
2023-03-14T03:42:07.033Z,0.68
2023-03-14T03:45:12.038Z,1.05
2023-03-14T03:48:24.429Z,0.70
2023-03-14T03:51:27.184Z,0.60
2023-03-14T03:54:32.493Z,0.10
2023-03-14T03:57:35.642Z,0.50
2023-03-14T04:00:37.888Z,1.05
2023-03-14T04:03:40.404Z,0.70
2023-03-14T04:06:43.528Z,0.53
2023-03-14T04:09:45.982Z,0.75
2023-03-14T04:12:59.463Z,0.95
2023-03-14T04:16:05.156Z,0.25
2023-03-14T04:19:08.970Z,0.30
2023-03-14T04:22:12.022Z,0.53
2023-03-14T04:25:26.199Z,0.68
2023-03-14T04:28:32.499Z,0.10
2023-03-14T04:31:35.381Z,0.15
2023-03-14T04:34:37.853Z,0.75
2023-03-14T04:37:40.989Z,1.33
2023-03-14T04:40:45.501Z,0.32
2023-03-14T04:43:49.147Z,0.10
2023-03-14T04:46:51.601Z,0.20
2023-03-14T04:49:54.023Z,0.35
2023-03-14T04:52:57.865Z,0.67
2023-03-14T04:56:00.567Z,0.55
2023-03-14T04:59:09.997Z,0.55
2023-03-14T05:02:14.676Z,1.05
2023-03-14T05:05:32.906Z,0.35
2023-03-14T05:08:47.357Z,0.43
2023-03-14T05:11:55.356Z,0.95
2023-03-14T05:15:26.573Z,0.80
2023-03-14T05:18:47.244Z,0.38
2023-03-14T05:22:12.559Z,0.65
2023-03-14T05:25:33.309Z,0.23
2023-03-14T05:28:54.220Z,0.68
2023-03-14T05:32:07.726Z,0.57
2023-03-14T05:35:26.841Z,1.45
2023-03-14T05:38:52.311Z,0.17
2023-03-14T05:42:13.168Z,0.20
2023-03-14T05:45:36.297Z,0.22
2023-03-14T05:48:45.784Z,0.47
2023-03-14T05:52:15.332Z,0.30
2023-03-14T05:55:37.768Z,0.70
2023-03-14T05:58:39.911Z,0.30
2023-03-14T06:02:14.388Z,0.52
2023-03-14T06:05:26.708Z,1.17
2023-03-14T06:08:35.542Z,0.30
2023-03-14T06:11:40.949Z,0.22
2023-03-14T06:14:43.672Z,0.97
2023-03-14T06:17:46.781Z,0.57
2023-03-14T06:20:49.750Z,0.30
2023-03-14T06:23:59.257Z,0.20
2023-03-14T06:27:04.573Z,0.65
2023-03-14T06:30:07.960Z,0.20
2023-03-14T06:33:13.528Z,0.10
2023-03-14T06:36:17.382Z,0.73
2023-03-14T06:39:22.404Z,0.32
2023-03-14T06:42:32.146Z,0.45
2023-03-14T06:45:36.841Z,0.60
2023-03-14T06:48:41.626Z,0.40
2023-03-14T06:51:46.886Z,0.45
2023-03-14T06:54:49.809Z,0.55
2023-03-14T06:57:58.169Z,1.05
2023-03-14T07:01:02.998Z,0.83
2023-03-14T07:04:12.329Z,0.13
2023-03-14T07:07:23.359Z,2.90
2023-03-14T07:10:27.214Z,0.30
2023-03-14T07:13:40.931Z,0.45
2023-03-14T07:16:45.384Z,0.33
2023-03-14T07:19:48.277Z,0.77
2023-03-14T07:22:51.482Z,0.55
2023-03-14T07:26:04.323Z,0.68
2023-03-14T07:29:08.887Z,1.25
2023-03-14T07:32:18.612Z,1.30
2023-03-14T07:35:26.214Z,1.15
2023-03-14T07:38:30.767Z,0.47
2023-03-14T07:42:04.711Z,0.63
2023-03-14T07:45:42.529Z,1.10
2023-03-14T07:48:45.516Z,0.27
2023-03-14T07:51:50.700Z,1.02
2023-03-14T07:54:53.337Z,0.40
2023-03-14T07:57:55.726Z,0.52
2023-03-14T08:01:00.162Z,0.28
2023-03-14T08:04:03.196Z,0.70
2023-03-14T08:07:13.111Z,0.20
2023-03-14T08:10:26.833Z,0.32
2023-03-14T08:13:30.035Z,0.47
2023-03-14T08:16:32.598Z,0.50
2023-03-14T08:19:36.129Z,0.20
2023-03-14T08:22:38.692Z,0.40
2023-03-14T08:25:42.673Z,0.82
2023-03-14T08:28:53.528Z,0.77
2023-03-14T08:31:56.657Z,0.50
2023-03-14T08:35:01.517Z,0.60
2023-03-14T08:38:08.140Z,0.30
2023-03-14T08:41:11.305Z,0.40
2023-03-14T08:44:16.314Z,0.40
2023-03-14T08:47:20.303Z,0.28
2023-03-14T08:50:24.300Z,0.50
2023-03-14T08:53:31.636Z,0.40
2023-03-14T08:56:34.043Z,0.40
2023-03-14T08:59:39.077Z,0.50
2023-03-14T09:02:41.418Z,0.50
2023-03-14T09:05:43.664Z,0.13
2023-03-14T09:08:46.867Z,0.28
2023-03-14T09:11:49.527Z,0.47
2023-03-14T09:14:52.263Z,0.30
2023-03-14T09:18:14.873Z,0.45
2023-03-14T09:21:17.366Z,0.47
2023-03-14T09:24:19.881Z,0.45
2023-03-14T09:27:22.622Z,0.20
2023-03-14T09:30:27.205Z,0.35
2023-03-14T09:33:29.600Z,0.60
2023-03-14T09:36:34.082Z,0.30
2023-03-14T09:39:36.461Z,0.38
2023-03-14T09:42:40.374Z,0.50
2023-03-14T09:45:48.290Z,0.40
2023-03-14T09:48:50.614Z,0.30
2023-03-14T09:51:55.736Z,0.60
2023-03-14T09:55:24.595Z,0.40
2023-03-14T09:58:26.875Z,1.00
2023-03-14T10:01:32.850Z,0.77
2023-03-14T10:04:35.562Z,0.38
2023-03-14T10:07:40.393Z,0.40
2023-03-14T10:10:44.845Z,0.10
2023-03-14T10:14:05.338Z,0.38
2023-03-14T10:17:13.094Z,0.20
2023-03-14T10:20:35.379Z,0.68
2023-03-14T10:23:40.045Z,0.13
2023-03-14T10:26:49.398Z,0.50
2023-03-14T10:30:00.734Z,0.45
2023-03-14T10:33:21.402Z,0.68
2023-03-14T10:36:29.247Z,0.43
2023-03-14T10:39:54.527Z,0.60
2023-03-14T10:42:59.716Z,0.70
2023-03-14T10:46:17.591Z,0.55
2023-03-14T10:49:38.624Z,0.70
2023-03-14T10:53:01.992Z,0.50
2023-03-14T10:56:06.120Z,0.70
2023-03-14T10:59:14.259Z,0.73
2023-03-14T11:02:59.519Z,0.80
2023-03-14T11:06:22.035Z,0.43
2023-03-14T11:09:30.271Z,0.40
2023-03-14T11:12:47.455Z,0.77
2023-03-14T11:16:13.035Z,0.80
2023-03-14T11:19:41.819Z,0.60
2023-03-14T11:23:15.619Z,0.63
2023-03-14T11:26:17.851Z,0.60
2023-03-14T11:29:23.009Z,0.57
2023-03-14T11:32:47.165Z,0.50
2023-03-14T11:36:07.668Z,0.85
2023-03-14T11:39:18.652Z,0.57
2023-03-14T11:42:22.416Z,0.43
2023-03-14T11:45:31.831Z,0.70
2023-03-14T11:48:43.132Z,0.50
2023-03-14T11:51:50.485Z,0.70
2023-03-14T11:55:14.338Z,0.43
2023-03-14T11:58:28.294Z,0.95
2023-03-14T12:01:41.972Z,0.73
2023-03-14T12:04:56.401Z,0.60
2023-03-14T12:08:10.680Z,0.63
2023-03-14T12:11:36.023Z,1.27
2023-03-14T12:14:45.502Z,0.70
2023-03-14T12:17:48.652Z,0.80
2023-03-14T12:21:25.284Z,0.50
2023-03-14T12:24:32.972Z,1.17
2023-03-14T12:27:48.586Z,0.50
2023-03-14T12:30:50.791Z,0.52
2023-03-14T12:34:22.410Z,0.57
2023-03-14T12:37:37.410Z,0.32
2023-03-14T12:40:49.206Z,0.50
2023-03-14T12:43:51.770Z,0.73
2023-03-14T12:46:54.223Z,0.52
2023-03-14T12:49:58.353Z,0.60
2023-03-14T12:53:06.354Z,0.80
2023-03-14T12:56:21.806Z,0.57
2023-03-14T12:59:48.658Z,0.60
2023-03-14T13:02:54.504Z,0.45
2023-03-14T13:05:58.915Z,0.83
2023-03-14T13:09:30.275Z,0.57
2023-03-14T13:12:41.081Z,0.35
2023-03-14T13:15:45.557Z,0.80
2023-03-14T13:19:08.972Z,0.45
2023-03-14T13:22:22.956Z,0.73
2023-03-14T13:25:25.337Z,0.57
2023-03-14T13:28:30.403Z,0.63
2023-03-14T13:31:32.630Z,0.50
2023-03-14T13:34:36.155Z,0.63
2023-03-14T13:37:41.026Z,0.30
2023-03-14T13:40:45.311Z,0.35
2023-03-14T13:43:47.580Z,0.45
2023-03-14T13:46:49.875Z,0.73
2023-03-14T13:49:53.272Z,0.98
2023-03-14T13:52:59.075Z,0.27
2023-03-14T13:56:04.885Z,0.20
2023-03-14T13:59:32.474Z,0.10
2023-03-14T14:02:37.333Z,0.20
2023-03-14T14:05:42.393Z,0.28
2023-03-14T14:08:45.637Z,0.20
2023-03-14T14:12:11.395Z,0.20
2023-03-14T14:15:29.343Z,0.32
2023-03-14T14:18:33.288Z,0.10
2023-03-14T14:21:35.940Z,0.20
2023-03-14T14:24:39.822Z,0.50
2023-03-14T14:27:45.611Z,0.17
2023-03-14T14:30:48.043Z,0.17
2023-03-14T14:34:01.036Z,0.30
2023-03-14T14:37:03.394Z,0.90
2023-03-14T14:40:26.642Z,0.23
2023-03-14T14:43:31.614Z,0.20
2023-03-14T14:46:37.122Z,0.20
2023-03-14T14:49:39.701Z,0.13
2023-03-14T14:52:44.782Z,0.10
2023-03-14T14:55:54.644Z,0.23
2023-03-14T14:59:00.953Z,0.10
2023-03-14T15:02:03.948Z,0.10
2023-03-14T15:05:07.368Z,0.25
2023-03-14T15:08:12.975Z,0.28
2023-03-14T15:11:18.824Z,0.30
2023-03-14T15:14:21.106Z,0.52
2023-03-14T15:17:23.515Z,0.22
2023-03-14T15:20:25.837Z,0.47
2023-03-14T15:23:28.028Z,0.30
2023-03-14T15:26:30.342Z,0.40
2023-03-14T15:29:33.722Z,0.30
2023-03-14T15:32:38.167Z,0.40
2023-03-14T15:35:42.409Z,0.15
2023-03-14T15:38:44.623Z,0.20
2023-03-14T15:41:46.892Z,0.30
2023-03-14T15:44:49.134Z,0.30
2023-03-14T15:47:51.370Z,0.80
2023-03-14T15:50:53.603Z,0.43
2023-03-14T15:53:55.871Z,0.68
2023-03-14T15:56:58.098Z,0.40
2023-03-14T16:00:00.361Z,0.50
2023-03-14T16:03:02.559Z,0.28
2023-03-14T16:06:05.590Z,0.77
2023-03-14T16:09:08.189Z,0.32
2023-03-14T16:12:10.476Z,0.43
2023-03-14T16:15:12.757Z,0.20
2023-03-14T16:18:21.525Z,0.70
2023-03-14T16:21:24.625Z,0.28
2023-03-14T16:24:26.822Z,0.43
2023-03-14T16:27:29.046Z,0.30
2023-03-14T16:30:31.376Z,0.40
2023-03-14T16:33:34.853Z,0.30
2023-03-14T16:36:37.283Z,0.38
2023-03-14T16:40:01.091Z,0.40
2023-03-14T16:43:15.730Z,0.80
2023-03-14T16:46:19.117Z,0.63
2023-03-14T16:49:21.410Z,0.80
2023-03-14T16:52:23.694Z,0.98
2023-03-14T16:55:25.946Z,0.73
2023-03-14T16:58:30.321Z,0.87
2023-03-14T17:01:32.674Z,0.63
2023-03-14T17:04:37.947Z,0.60
2023-03-14T17:07:40.209Z,1.02
2023-03-14T17:10:42.544Z,1.60
2023-03-14T17:13:45.022Z,0.90
2023-03-14T17:16:47.762Z,0.90
2023-03-14T17:19:50.061Z,1.27
2023-03-14T17:22:52.289Z,1.52
2023-03-14T17:25:54.582Z,0.88
2023-03-14T17:28:56.805Z,0.73
2023-03-14T17:31:59.115Z,0.70
2023-03-14T17:35:01.352Z,0.57
2023-03-14T17:38:04.782Z,0.52
2023-03-14T17:41:16.525Z,0.85
2023-03-14T17:44:18.855Z,0.30
2023-03-14T17:47:21.101Z,1.10
2023-03-14T17:50:23.413Z,0.30
2023-03-14T17:53:25.732Z,0.40
2023-03-14T17:56:28.002Z,0.30
2023-03-14T17:59:30.209Z,0.20
2023-03-14T18:02:32.540Z,0.68
2023-03-14T18:05:38.718Z,0.52
2023-03-14T18:08:44.111Z,0.30
2023-03-14T18:11:47.201Z,0.82
2023-03-14T18:14:50.627Z,0.50
2023-03-14T18:17:52.825Z,0.40
2023-03-14T18:20:55.029Z,0.50
2023-03-14T18:23:57.450Z,0.32
2023-03-14T18:26:59.867Z,0.10
2023-03-14T18:30:02.692Z,0.20
2023-03-14T18:33:05.537Z,0.30
2023-03-14T18:36:12.903Z,0.20
2023-03-14T18:39:15.202Z,0.17
2023-03-14T18:42:17.481Z,0.10
2023-03-14T18:45:19.711Z,0.10
2023-03-14T18:48:25.104Z,0.57
2023-03-14T18:51:29.058Z,0.25
2023-03-14T18:54:31.405Z,0.20
2023-03-14T18:57:33.653Z,0.65
2023-03-14T19:00:37.387Z,0.20
2023-03-14T19:03:40.503Z,0.28
2023-03-14T19:06:42.975Z,0.40
2023-03-14T19:09:45.360Z,0.80
2023-03-14T19:12:48.181Z,0.20
2023-03-14T19:15:50.697Z,0.10
2023-03-14T19:18:53.273Z,0.10
2023-03-14T19:21:55.565Z,0.30
2023-03-14T19:24:58.159Z,4.75
2023-03-14T19:28:00.398Z,7.32
2023-03-14T19:31:04.204Z,7.10
2023-03-14T19:34:06.782Z,4.57
2023-03-14T19:37:08.989Z,0.77
2023-03-14T19:40:14.401Z,0.38
2023-03-14T19:43:17.385Z,2.90
2023-03-14T19:46:21.696Z,1.57
2023-03-14T19:49:24.015Z,0.60
2023-03-14T19:52:29.236Z,0.28
2023-03-14T19:55:35.263Z,0.17
2023-03-14T19:58:41.078Z,0.20
2023-03-14T20:01:47.153Z,0.50
2023-03-14T20:04:50.221Z,0.40
2023-03-14T20:07:52.488Z,0.30
2023-03-14T20:10:54.704Z,0.40
2023-03-14T20:13:56.891Z,0.57
2023-03-14T20:16:59.496Z,1.23
2023-03-14T20:20:01.792Z,0.43
2023-03-14T20:23:04.052Z,0.45
2023-03-14T20:26:06.474Z,0.00
2023-03-14T20:29:08.940Z,0.63
2023-03-14T20:32:11.238Z,0.40
2023-03-14T20:35:14.618Z,0.22
2023-03-14T20:38:16.761Z,0.13
2023-03-14T20:41:18.945Z,0.60
2023-03-14T20:44:21.145Z,0.70
2023-03-14T20:47:23.368Z,0.43
2023-03-14T20:50:25.533Z,0.30
2023-03-14T20:53:27.983Z,0.65
2023-03-14T20:56:30.519Z,0.30
2023-03-14T20:59:32.894Z,0.10
2023-03-14T21:02:42.001Z,0.00
2023-03-14T21:05:48.823Z,0.30
2023-03-14T21:08:51.144Z,0.30
2023-03-14T21:11:53.808Z,0.55
2023-03-14T21:14:56.085Z,0.25
2023-03-14T21:17:58.486Z,0.30
2023-03-14T21:21:00.855Z,0.40
2023-03-14T21:24:03.528Z,0.32
2023-03-14T21:27:05.738Z,0.55
2023-03-14T21:30:12.886Z,0.15
2023-03-14T21:33:15.581Z,0.30
2023-03-14T21:36:19.455Z,0.20
2023-03-14T21:39:22.158Z,0.00
2023-03-14T21:42:24.462Z,0.10
2023-03-14T21:45:27.298Z,0.10
2023-03-14T21:48:29.595Z,0.40
2023-03-14T21:51:35.800Z,0.10
2023-03-14T21:54:38.125Z,0.30
2023-03-14T21:57:40.442Z,0.30
2023-03-14T22:00:49.316Z,0.30
2023-03-14T22:03:51.695Z,0.20
2023-03-14T22:06:53.890Z,0.28
2023-03-14T22:09:56.162Z,0.08
2023-03-14T22:12:58.411Z,0.40
2023-03-14T22:16:00.721Z,0.55
2023-03-14T22:19:03.007Z,0.10
2023-03-14T22:22:05.362Z,0.45
2023-03-14T22:25:07.997Z,0.20
2023-03-14T22:28:10.915Z,0.35
2023-03-14T22:31:13.182Z,0.68
2023-03-14T22:34:15.505Z,0.40
2023-03-14T22:37:17.829Z,0.30
2023-03-14T22:40:20.354Z,0.30
2023-03-14T22:43:22.647Z,0.47
2023-03-14T22:46:24.890Z,0.10
2023-03-14T22:49:30.356Z,0.10
2023-03-14T22:52:32.883Z,0.10
2023-03-14T22:55:35.186Z,0.10
2023-03-14T22:58:37.717Z,0.30
2023-03-14T23:01:46.930Z,0.63
2023-03-14T23:04:49.381Z,0.30
2023-03-14T23:07:53.452Z,0.30
2023-03-14T23:11:06.108Z,0.55
2023-03-14T23:14:08.948Z,0.10
2023-03-14T23:17:11.331Z,0.30
2023-03-14T23:20:13.635Z,0.20
2023-03-14T23:23:15.928Z,0.20
2023-03-14T23:26:22.333Z,0.00
2023-03-14T23:29:24.565Z,0.10
2023-03-14T23:32:26.983Z,0.10
2023-03-14T23:35:29.198Z,0.10
2023-03-14T23:38:32.980Z,0.10
2023-03-14T23:41:35.948Z,0.03
2023-03-14T23:44:38.437Z,0.00
2023-03-14T23:47:41.446Z,0.03
2023-03-14T23:50:43.710Z,0.10
2023-03-14T23:53:46.094Z,0.10
2023-03-14T23:56:48.618Z,0.10
2023-03-14T23:59:53.751Z,0.05
